KGAF

Hutson Field Airport

Grafton, North Dakota, USA
METAR KGAF 210355Z AUTO 32008KT 10SM CLR M01/M04 A2991 RMK AO2 PWINO
Observed Flight Rules
Jan-21 @ 03:55 UTC (49 minutes ago) Visual Flight Rules
Wind Visibility Clouds
320° at 8 knots 10 miles
  • Clear skies
Temperatures Readings
Current -1°C / 30°F
Dewpoint -4°C / 25°F
Humidity 80%
Altimeter 29.91" Hg
Pressure 1013 hPa
Elevation 252
METAR KGAF 210355Z AUTO 32008KT 10SM CLR M01/M04 A2991 RMK AO2 PWINO
Observed Flight Rules
Jan-21 @ 03:55 UTC
(49 minutes ago)
VFR
Wind Visibility
320° at 8 knots 10 miles
Clouds
  • Clear skies
Temperature Dewpoint
-1°C / 30°F -4°C / 25°F
Humidity Altimeter Pressure
80% 29.91" Hg 1013 hPa